Time;durP1;ratioP1;P1;durP2;ratioP2;P2;SDS_P1;SDS_P2;PMS_P1;PMS_P2;Temp;Humidity;BMP_temperature;BMP_pressure;BME280_temperature;BME280_humidity;BME280_pressure;Samples;Min_cycle;Max_cycle;Signal;HPM_P1;HPM_P2
2023/10/08 00:01:51;;;;;;;12.25;4.30;;;;;;;17.70;65.60;102017.50;3616225;39;20305;-66
2023/10/08 00:04:20;;;;;;;5.32;3.50;;;;;;;17.86;65.80;102052.66;3615769;39;20062;-66
2023/10/08 00:06:46;;;;;;;9.10;4.13;;;;;;;17.86;65.11;102058.09;3614863;39;20050;-66
2023/10/08 00:09:12;;;;;;;6.55;3.88;;;;;;;17.84;65.79;102071.78;3615735;39;20104;-66
2023/10/08 00:11:40;;;;;;;7.25;4.22;;;;;;;17.81;65.00;102072.00;3617056;39;20062;-66
2023/10/08 00:14:09;;;;;;;8.15;4.10;;;;;;;17.79;65.58;102065.84;3617469;39;20115;-66
2023/10/08 00:16:38;;;;;;;8.73;4.13;;;;;;;17.76;65.50;102057.84;3617278;39;20051;-67
2023/10/08 00:19:15;;;;;;;7.03;3.90;;;;;;;17.75;66.15;102071.56;3618731;39;20360;-65
2023/10/08 00:21:44;;;;;;;6.78;4.15;;;;;;;17.38;65.89;102018.00;3614581;39;20054;-65
2023/10/08 00:24:10;;;;;;;7.80;3.70;;;;;;;17.62;65.60;102074.28;3614105;39;20042;-65
2023/10/08 00:26:39;;;;;;;10.00;4.35;;;;;;;17.54;66.52;102074.84;3615743;39;20057;-66
2023/10/08 00:29:21;;;;;;;8.68;4.00;;;;;;;17.51;66.21;102079.66;3614925;39;20343;-67
2023/10/08 00:31:49;;;;;;;9.07;4.20;;;;;;;17.47;67.31;102078.97;3615478;39;20381;-66
2023/10/08 00:34:19;;;;;;;8.27;4.38;;;;;;;17.42;66.91;102086.59;3615600;39;20067;-66
2023/10/08 00:36:47;;;;;;;7.90;4.57;;;;;;;17.21;67.50;102060.91;3617108;39;20047;-66
2023/10/08 00:39:22;;;;;;;8.98;4.50;;;;;;;17.31;68.63;102086.47;3615664;39;20086;-66
2023/10/08 00:41:49;;;;;;;10.27;4.45;;;;;;;17.25;68.85;102082.31;3615474;39;20046;-66
2023/10/08 00:44:22;;;;;;;8.07;4.43;;;;;;;17.20;69.32;102078.22;3616378;39;20387;-66
2023/10/08 00:46:49;;;;;;;10.00;4.40;;;;;;;17.15;69.04;102076.66;3615337;39;20602;-66
2023/10/08 00:49:35;;;;;;;7.53;4.03;;;;;;;17.09;69.96;102089.81;3615556;39;20362;-66
2023/10/08 00:57:28;;;;;;;7.68;4.07;;;;;;;16.94;70.00;102097.19;3613705;39;19937;-66
2023/10/08 00:59:55;;;;;;;11.07;4.57;;;;;;;16.92;70.93;102093.69;3614700;39;20057;-66
2023/10/08 01:02:28;;;;;;;8.15;4.35;;;;;;;16.83;70.75;102091.59;3617022;39;20410;-66
2023/10/08 01:04:55;;;;;;;8.90;4.47;;;;;;;16.47;70.92;102034.22;3616168;39;20496;-66
2023/10/08 01:07:23;;;;;;;8.27;4.55;;;;;;;16.78;70.58;102083.78;3618394;39;20274;-66
2023/10/08 01:09:51;;;;;;;7.38;4.30;;;;;;;16.71;71.02;102077.88;3616374;39;20051;-67
2023/10/08 01:12:26;;;;;;;9.18;4.95;;;;;;;16.70;71.61;102080.66;3612680;39;20319;-67
2023/10/08 01:15:04;;;;;;;7.95;4.60;;;;;;;16.65;72.09;102072.84;3618407;39;20086;-67
2023/10/08 01:17:32;;;;;;;8.60;4.72;;;;;;;16.41;71.62;102023.78;3617849;39;20102;-65
2023/10/08 01:20:20;;;;;;;8.27;4.47;;;;;;;16.55;71.80;102071.69;3618675;39;20065;-66
2023/10/08 01:22:46;;;;;;;7.70;4.25;;;;;;;16.51;72.20;102077.44;3619194;39;20136;-67
2023/10/08 01:25:21;;;;;;;7.60;4.35;;;;;;;16.48;72.72;102073.09;3618949;39;20054;-67
2023/10/08 01:27:47;;;;;;;10.57;5.25;;;;;;;16.46;72.32;102069.63;3616460;39;20047;-66
2023/10/08 01:30:17;;;;;;;8.55;4.75;;;;;;;16.43;72.71;102065.28;3618068;39;20058;-66
2023/10/08 01:32:44;;;;;;;9.35;4.43;;;;;;;16.40;72.99;102060.06;3620138;39;20601;-66
2023/10/08 01:35:22;;;;;;;6.95;4.57;;;;;;;16.34;72.96;102046.88;3616716;39;20046;-66
2023/10/08 01:37:50;;;;;;;8.77;4.68;;;;;;;16.27;73.64;102051.00;3617217;39;20118;-66
2023/10/08 01:40:18;;;;;;;8.63;4.80;;;;;;;16.28;73.44;102049.13;3617771;39;20057;-66
2023/10/08 01:42:44;;;;;;;9.77;4.93;;;;;;;16.23;74.08;102041.28;3617893;39;20114;-65
2023/10/08 01:45:12;;;;;;;8.32;4.93;;;;;;;16.18;73.78;102038.03;3617109;39;20053;-65
2023/10/08 01:47:38;;;;;;;7.32;4.72;;;;;;;16.15;74.18;102039.09;3618212;39;20081;-66
2023/10/08 01:50:09;;;;;;;8.82;4.78;;;;;;;15.96;74.45;102015.03;3618983;39;20378;-66
2023/10/08 01:52:34;;;;;;;10.77;5.25;;;;;;;16.14;74.20;102050.03;3618549;39;20416;-65
2023/10/08 01:55:00;;;;;;;7.68;4.32;;;;;;;16.05;73.93;102037.06;3619487;39;20043;-66
2023/10/08 01:57:25;;;;;;;9.77;5.05;;;;;;;16.11;74.23;102043.00;3619191;39;20400;-66
2023/10/08 01:59:51;;;;;;;7.88;4.50;;;;;;;15.94;74.16;102026.94;3615662;39;20057;-67
2023/10/08 02:02:17;;;;;;;10.93;4.65;;;;;;;16.13;74.38;102067.28;3617264;39;20057;-66
2023/10/08 02:04:43;;;;;;;8.18;4.75;;;;;;;16.13;74.36;102067.28;3619145;39;20095;-66
2023/10/08 02:07:12;;;;;;;7.63;4.25;;;;;;;16.07;73.51;102065.84;3616450;39;20486;-66
2023/10/08 02:09:41;;;;;;;11.48;5.13;;;;;;;16.18;73.66;102073.28;3619744;39;20051;-67
2023/10/08 02:12:08;;;;;;;7.50;4.40;;;;;;;16.21;73.63;102092.09;3616948;39;20061;-66
2023/10/08 02:14:35;;;;;;;13.15;5.60;;;;;;;16.22;73.33;102072.13;3617757;39;20051;-66
2023/10/08 02:17:06;;;;;;;11.23;4.88;;;;;;;16.24;73.13;102075.63;3616322;39;20053;-68
2023/10/08 02:19:32;;;;;;;7.82;4.68;;;;;;;16.23;74.04;102073.84;3615871;39;20129;-66
2023/10/08 02:21:58;;;;;;;10.10;4.68;;;;;;;16.23;73.18;102069.28;3615814;39;20066;-67
2023/10/08 02:24:25;;;;;;;12.60;5.10;;;;;;;16.22;74.24;102072.97;3616414;39;20124;-66
2023/10/08 02:26:56;;;;;;;7.50;4.88;;;;;;;16.25;73.44;102074.63;3614871;39;20262;-66
2023/10/08 02:29:27;;;;;;;10.38;4.68;;;;;;;16.21;72.98;102070.38;3616221;39;20051;-66
2023/10/08 02:31:53;;;;;;;7.72;4.68;;;;;;;16.28;73.72;102081.69;3614332;39;20125;-66
2023/10/08 02:34:20;;;;;;;8.68;4.78;;;;;;;16.27;72.95;102072.69;3616772;39;20046;-67
2023/10/08 02:36:46;;;;;;;7.50;4.65;;;;;;;16.24;73.35;102071.06;3613729;39;20509;-66
2023/10/08 02:39:25;;;;;;;9.20;4.70;;;;;;;16.23;73.57;102073.84;3616260;39;20070;-65
2023/10/08 02:41:56;;;;;;;10.55;4.95;;;;;;;16.23;73.34;102079.28;3614319;39;20269;-65
2023/10/08 02:44:22;;;;;;;9.20;4.55;;;;;;;16.24;72.98;102081.03;3614809;39;20057;-65
2023/10/08 02:46:49;;;;;;;11.00;4.97;;;;;;;16.23;73.17;102091.00;3616418;39;20289;-66
2023/10/08 02:49:21;;;;;;;11.20;4.82;;;;;;;16.25;73.14;102088.19;3615428;39;20063;-66
2023/10/08 02:51:54;;;;;;;13.82;5.30;;;;;;;16.27;73.27;102104.34;3615318;39;20057;-65
2023/10/08 02:54:24;;;;;;;9.43;5.25;;;;;;;16.24;73.11;102094.59;3616630;39;20282;-66
2023/10/08 02:56:57;;;;;;;10.38;5.40;;;;;;;16.24;73.61;102086.47;3614912;39;20112;-66
2023/10/08 02:59:27;;;;;;;10.82;4.95;;;;;;;16.20;73.44;102080.34;3615188;39;20055;-66
2023/10/08 03:01:55;;;;;;;9.77;4.88;;;;;;;16.27;73.33;102101.66;3614717;39;20085;-66
2023/10/08 03:04:22;;;;;;;10.73;4.85;;;;;;;16.13;73.46;102072.72;3613866;39;20066;-66
2023/10/08 03:06:54;;;;;;;7.45;4.55;;;;;;;16.27;73.28;102091.69;3615163;39;20370;-66
2023/10/08 03:09:26;;;;;;;9.50;5.10;;;;;;;16.27;73.52;102098.94;3614920;39;20058;-67
2023/10/08 03:11:52;;;;;;;9.00;4.60;;;;;;;16.25;73.36;102093.63;3616941;39;20484;-66
2023/10/08 03:14:22;;;;;;;10.75;4.93;;;;;;;16.21;73.80;102092.09;3614651;39;20128;-67
2023/10/08 03:16:54;;;;;;;11.90;4.90;;;;;;;16.21;74.12;102092.09;3613977;39;20266;-67
2023/10/08 03:19:22;;;;;;;9.73;4.85;;;;;;;16.20;73.99;102102.03;3616643;39;20050;-66
2023/10/08 03:21:56;;;;;;;8.60;4.82;;;;;;;16.21;74.61;102114.66;3615404;39;20058;-67
2023/10/08 03:27:15;;;;;;;8.90;4.57;;;;;;;16.22;74.45;102115.53;3614318;39;20058;-65
2023/10/08 03:29:41;;;;;;;11.10;4.65;;;;;;;16.22;74.01;102120.94;3607401;39;20051;-65
2023/10/08 03:32:15;;;;;;;10.18;4.55;;;;;;;16.23;74.08;102117.25;3615134;39;20057;-67
2023/10/08 03:34:50;;;;;;;10.82;5.18;;;;;;;16.19;73.96;102110.28;3616566;39;20047;-66
2023/10/08 03:37:29;;;;;;;11.13;4.97;;;;;;;16.23;74.16;102117.25;3609212;39;20114;-66
2023/10/08 03:40:22;;;;;;;13.90;5.03;;;;;;;16.25;74.06;102118.91;3614269;39;20417;-66
2023/10/08 03:42:49;;;;;;;9.13;4.70;;;;;;;16.18;74.17;102114.00;3614889;39;20051;-66
2023/10/08 03:45:22;;;;;;;11.63;4.72;;;;;;;16.16;73.72;102118.63;3614242;39;20316;-66
2023/10/08 03:48:04;;;;;;;7.10;4.47;;;;;;;16.14;74.11;102124.19;3614953;39;20047;-67
2023/10/08 03:50:32;;;;;;;7.80;4.10;;;;;;;16.13;74.02;102118.84;3619524;39;20123;-66
2023/10/08 03:52:58;;;;;;;8.45;4.70;;;;;;;16.13;74.45;102121.53;3614924;39;20058;-65
2023/10/08 03:55:27;;;;;;;9.73;4.78;;;;;;;16.09;74.16;102111.88;3615495;39;20046;-66
2023/10/08 03:58:03;;;;;;;10.13;5.05;;;;;;;16.14;73.74;102117.84;3616076;39;20266;-65
2023/10/08 04:00:31;;;;;;;10.07;4.47;;;;;;;16.09;74.39;102118.16;3616456;39;20054;-66
2023/10/08 04:03:07;;;;;;;10.45;4.93;;;;;;;16.06;73.53;102120.22;3614816;39;20421;-66
2023/10/08 04:08:42;;;;;;;11.23;5.18;;;;;;;16.05;74.44;102115.72;3615406;39;20118;-66
2023/10/08 04:11:08;;;;;;;8.43;4.97;;;;;;;16.05;74.37;102104.88;3615829;39;20046;-66
2023/10/08 04:13:39;;;;;;;10.27;4.82;;;;;;;16.02;74.56;102109.56;3606762;39;20061;-66
2023/10/08 04:16:06;;;;;;;11.13;4.82;;;;;;;16.05;74.45;102123.88;3613504;39;20429;-68
2023/10/08 04:18:32;;;;;;;14.20;5.05;;;;;;;16.01;75.04;102118.63;3613390;39;20058;-67
2023/10/08 04:21:04;;;;;;;9.77;4.95;;;;;;;16.00;74.34;102122.34;3618862;39;20053;-68
2023/10/08 04:23:30;;;;;;;9.65;4.93;;;;;;;15.77;74.58;102090.41;3605257;39;20050;-66
2023/10/08 04:25:57;;;;;;;10.35;5.03;;;;;;;15.85;74.91;102101.59;3614949;39;20362;-67
2023/10/08 04:28:28;;;;;;;9.55;4.65;;;;;;;15.94;74.43;102128.16;3614016;39;20081;-66
2023/10/08 04:31:00;;;;;;;7.75;4.55;;;;;;;15.99;74.37;102136.88;3615617;39;20437;-66
2023/10/08 04:33:31;;;;;;;11.73;5.73;;;;;;;15.64;74.09;102081.28;3616606;39;20065;-67
2023/10/08 04:36:01;;;;;;;8.43;4.78;;;;;;;16.05;74.55;102153.72;3614425;39;20098;-66
2023/10/08 04:38:28;;;;;;;12.82;5.70;;;;;;;15.78;74.92;102101.13;3608707;39;20123;-67
2023/10/08 04:40:59;;;;;;;9.05;4.70;;;;;;;15.89;75.14;102129.41;3611784;39;20150;-67
2023/10/08 04:43:27;;;;;;;9.70;4.95;;;;;;;15.81;74.92;102123.59;3614367;39;20074;-67
2023/10/08 04:46:04;;;;;;;13.52;5.03;;;;;;;15.93;75.22;102141.81;3614336;39;20135;-67
2023/10/08 04:48:32;;;;;;;10.80;5.47;;;;;;;15.91;75.32;102143.75;3610244;39;20094;-67
2023/10/08 04:50:59;;;;;;;12.35;5.63;;;;;;;15.87;75.38;102153.91;3614453;39;20053;-66
2023/10/08 04:53:37;;;;;;;8.45;4.68;;;;;;;15.87;75.98;102158.47;3613836;39;20042;-66
2023/10/08 04:56:16;;;;;;;7.93;4.60;;;;;;;15.86;76.14;102168.47;3614578;39;20313;-66
2023/10/08 04:58:47;;;;;;;11.55;5.38;;;;;;;15.77;77.02;102141.91;3612746;39;20698;-66
2023/10/08 05:01:27;;;;;;;11.27;5.15;;;;;;;15.74;76.84;102161.09;3614950;39;20055;-67
2023/10/08 05:09:09;;;;;;;9.38;4.78;;;;;;;15.62;77.56;102159.09;3615441;39;20088;-66
2023/10/08 05:12:10;;;;;;;11.25;5.28;;;;;;;15.58;78.45;102174.69;3605721;39;20084;-67
2023/10/08 05:17:21;;;;;;;10.98;5.32;;;;;;;15.53;78.60;102168.66;3615767;39;20124;-67
2023/10/08 05:20:19;;;;;;;13.57;4.70;;;;;;;15.48;78.86;102177.09;3604033;39;20329;-66
2023/10/08 05:22:55;;;;;;;11.40;4.95;;;;;;;14.98;79.29;102088.91;3612620;39;20116;-66
2023/10/08 05:30:38;;;;;;;13.00;5.75;;;;;;;15.36;79.63;102169.69;3612552;39;20042;-67
2023/10/08 05:33:24;;;;;;;10.77;5.35;;;;;;;15.36;80.08;102179.66;3614211;39;20320;-67
2023/10/08 05:36:02;;;;;;;8.98;5.25;;;;;;;15.35;79.42;102178.78;3615153;39;20079;-67
2023/10/08 05:46:39;;;;;;;;;;;;;;;15.00;80.04;102153.78;3616670;39;20290;-67
2023/10/08 05:48:50;;;;;;;9.35;5.13;;;;;;;15.35;79.96;102211.31;3612521;39;19955;-67
2023/10/08 05:51:33;;;;;;;8.13;4.95;;;;;;;15.37;79.59;102209.38;3615734;39;20293;-67
2023/10/08 05:54:03;;;;;;;10.50;5.22;;;;;;;15.36;79.55;102202.22;3616340;39;20063;-67
2023/10/08 05:56:28;;;;;;;8.88;5.50;;;;;;;15.33;79.61;102184.28;3616511;39;20050;-67
2023/10/08 05:59:14;;;;;;;10.95;5.35;;;;;;;15.29;80.42;102173.75;3614464;39;20690;-67
2023/10/08 06:01:41;;;;;;;13.30;5.63;;;;;;;15.26;80.58;102168.50;3615035;39;20103;-66
2023/10/08 06:04:31;;;;;;;8.88;5.78;;;;;;;15.21;80.71;102149.81;3616137;39;20047;-67
2023/10/08 06:07:12;;;;;;;11.65;5.43;;;;;;;15.17;80.57;102147.38;3615578;39;20131;-67
2023/10/08 06:09:39;;;;;;;12.60;5.45;;;;;;;15.17;80.70;102160.94;3615990;39;20378;-66
2023/10/08 06:12:19;;;;;;;9.30;5.32;;;;;;;15.04;80.31;102126.44;3618083;39;20304;-66
2023/10/08 06:17:56;;;;;;;12.15;5.63;;;;;;;15.13;80.78;102151.22;3615163;39;20388;-65
2023/10/08 06:20:25;;;;;;;12.80;5.80;;;;;;;15.16;80.35;102159.16;3620728;39;20073;-66
2023/10/08 06:22:55;;;;;;;9.63;5.40;;;;;;;15.15;80.64;102170.97;3617797;39;20081;-66
2023/10/08 06:25:23;;;;;;;11.70;5.72;;;;;;;15.17;80.71;102169.94;3616353;39;20031;-67
2023/10/08 06:27:55;;;;;;;10.45;5.35;;;;;;;15.19;80.53;102176.13;3613746;39;20058;-67
2023/10/08 06:30:23;;;;;;;11.70;6.18;;;;;;;15.22;80.49;102185.88;3616291;39;20076;-66
2023/10/08 06:32:50;;;;;;;11.20;5.50;;;;;;;15.24;80.88;102189.38;3609353;39;20042;-66
2023/10/08 06:35:21;;;;;;;13.73;6.25;;;;;;;15.28;80.11;102193.66;3616463;39;20119;-66
2023/10/08 06:37:54;;;;;;;14.10;6.15;;;;;;;15.31;80.67;102199.75;3614640;39;20470;-66
2023/10/08 06:40:40;;;;;;;;;;;;;;;15.32;80.39;102190.69;3610457;39;20046;-67
2023/10/08 06:43:24;;;;;;;12.93;5.85;;;;;;;15.34;80.01;102187.88;3619143;39;19940;-66
2023/10/08 06:45:53;;;;;;;;;;;;;;;15.32;80.54;102181.69;3615612;39;20261;-66
2023/10/08 06:48:21;;;;;;;12.57;6.45;;;;;;;15.33;80.32;102191.56;3615054;39;19964;-67
2023/10/08 06:50:56;;;;;;;12.38;6.53;;;;;;;15.09;80.54;102146.00;3615788;39;20192;-66
2023/10/08 06:53:23;;;;;;;13.15;6.03;;;;;;;15.35;80.94;102191.44;3616055;39;20094;-66
2023/10/08 06:55:56;;;;;;;13.98;6.25;;;;;;;15.35;80.90;102191.44;3616605;39;20051;-66
2023/10/08 06:58:25;;;;;;;12.70;6.13;;;;;;;15.33;81.25;102195.13;3617043;39;20050;-65
2023/10/08 07:00:52;;;;;;;13.18;6.18;;;;;;;15.37;80.77;102203.94;3615873;39;20071;-66
2023/10/08 07:03:20;;;;;;;10.55;6.22;;;;;;;15.42;81.16;102201.84;3615857;39;20057;-66
2023/10/08 07:05:59;;;;;;;14.45;6.43;;;;;;;15.42;80.89;102212.69;3617094;39;20043;-66
2023/10/08 07:08:31;;;;;;;14.23;6.22;;;;;;;15.35;81.28;102197.75;3616934;39;20057;-66
2023/10/08 07:11:04;;;;;;;15.48;6.80;;;;;;;15.53;80.64;102212.88;3616411;39;20040;-66
2023/10/08 07:13:30;;;;;;;;;;;;;;;15.53;81.02;102212.03;3613706;39;20047;-66
2023/10/08 07:15:56;;;;;;;11.15;5.75;;;;;;;15.61;80.82;102219.72;3616130;39;20011;-66
2023/10/08 07:18:24;;;;;;;16.00;7.25;;;;;;;15.63;80.53;102225.88;3615110;39;20086;-66
2023/10/08 07:20:53;;;;;;;13.43;6.57;;;;;;;15.74;79.77;102232.44;3617974;39;20066;-67
2023/10/08 07:23:28;;;;;;;12.63;6.93;;;;;;;15.81;79.59;102230.22;3615736;39;20052;-66
2023/10/08 07:26:12;;;;;;;15.15;7.70;;;;;;;15.73;79.08;102197.28;3618167;39;20062;-66
2023/10/08 07:28:40;;;;;;;16.48;7.07;;;;;;;15.96;78.80;102229.28;3616999;39;20389;-67
2023/10/08 07:31:17;;;;;;;15.05;6.97;;;;;;;16.10;79.36;102235.69;3615611;39;20051;-66
2023/10/08 07:33:55;;;;;;;13.75;7.20;;;;;;;16.23;77.99;102231.22;3617095;39;20400;-66
2023/10/08 07:36:29;;;;;;;16.20;7.25;;;;;;;16.20;77.00;102215.13;3613025;39;20214;-66
2023/10/08 07:38:54;;;;;;;;;;;;;;;16.45;76.78;102247.00;3615480;39;20054;-66
2023/10/08 07:41:20;;;;;;;11.98;7.00;;;;;;;16.58;76.28;102247.09;3617181;39;19938;-65
2023/10/08 07:43:55;;;;;;;12.93;7.05;;;;;;;16.68;75.65;102253.66;3616817;39;20050;-67
2023/10/08 07:46:22;;;;;;;15.75;7.97;;;;;;;16.79;75.59;102251.16;3618917;39;20437;-66
2023/10/08 07:48:50;;;;;;;14.52;6.78;;;;;;;16.87;76.29;102245.22;3616503;39;20139;-67
2023/10/08 07:51:17;;;;;;;14.63;7.38;;;;;;;16.98;75.39;102244.53;3618374;39;20047;-67
2023/10/08 07:53:43;;;;;;;12.48;7.13;;;;;;;17.12;75.34;102236.31;3615913;39;20301;-65
2023/10/08 07:56:10;;;;;;;13.68;7.47;;;;;;;17.25;75.50;102239.09;3619689;39;20118;-66
2023/10/08 07:58:37;;;;;;;15.65;7.82;;;;;;;17.26;74.10;102232.69;3613103;39;20093;-66
2023/10/08 08:01:09;;;;;;;13.30;7.28;;;;;;;17.36;74.04;102245.53;3614808;39;20073;-66
2023/10/08 08:03:36;;;;;;;15.35;7.75;;;;;;;17.47;74.87;102254.81;3618945;39;20123;-66
2023/10/08 08:06:07;;;;;;;14.25;7.38;;;;;;;17.49;74.73;102253.72;3616974;39;20059;-67
2023/10/08 08:08:38;;;;;;;14.80;8.00;;;;;;;17.51;75.43;102240.91;3613743;39;20411;-67
2023/10/08 08:11:17;;;;;;;15.52;8.07;;;;;;;17.69;75.83;102262.38;3614419;39;20057;-66
2023/10/08 08:13:45;;;;;;;13.30;8.02;;;;;;;17.80;75.82;102282.44;3604358;39;20408;-65
2023/10/08 08:16:20;;;;;;;22.42;8.52;;;;;;;17.84;74.74;102273.09;3615390;39;20058;-66
2023/10/08 08:18:52;;;;;;;19.45;8.38;;;;;;;18.00;74.70;102286.50;3613930;39;20094;-66
2023/10/08 08:21:19;;;;;;;15.88;8.82;;;;;;;18.04;74.51;102277.13;3613166;39;20043;-66
2023/10/08 08:23:47;;;;;;;13.43;8.25;;;;;;;18.18;74.10;102283.47;3612486;39;20062;-66
2023/10/08 08:26:28;;;;;;;16.83;7.90;;;;;;;18.21;74.98;102295.00;3610946;39;20066;-66
2023/10/08 08:29:02;;;;;;;16.13;8.13;;;;;;;18.22;74.80;102294.03;3617181;39;20049;-67
2023/10/08 08:31:35;;;;;;;15.95;7.75;;;;;;;18.36;74.28;102300.34;3616094;39;20050;-66
2023/10/08 08:34:08;;;;;;;17.83;8.50;;;;;;;18.29;74.19;102294.47;3621076;39;20062;-66
2023/10/08 08:36:37;;;;;;;15.70;8.68;;;;;;;18.36;74.33;102311.22;3616591;39;20065;-65
2023/10/08 08:39:04;;;;;;;17.23;7.85;;;;;;;18.35;74.55;102323.09;3615300;39;20139;-66
2023/10/08 08:41:30;;;;;;;15.77;8.07;;;;;;;18.28;75.17;102319.94;3615108;39;20059;-68
2023/10/08 08:43:58;;;;;;;16.88;8.82;;;;;;;18.21;76.49;102326.81;3618072;39;20061;-66
2023/10/08 08:46:53;;;;;;;13.18;8.65;;;;;;;18.14;76.97;102334.53;3617431;39;21540;-66
2023/10/08 08:49:18;;;;;;;16.58;9.45;;;;;;;18.13;76.94;102332.78;3615467;39;20061;-66
2023/10/08 08:51:48;;;;;;;18.63;10.00;;;;;;;18.09;76.10;102323.09;3617519;39;20054;-66
2023/10/08 08:54:16;;;;;;;16.55;9.70;;;;;;;18.03;76.35;102323.50;3618857;39;20396;-65
2023/10/08 08:56:43;;;;;;;20.25;10.00;;;;;;;18.03;76.75;102323.50;3615997;39;20061;-65
2023/10/08 08:59:12;;;;;;;23.80;10.45;;;;;;;18.05;77.55;102335.19;3619396;39;20058;-65
2023/10/08 09:01:40;;;;;;;15.15;9.05;;;;;;;18.09;77.74;102315.78;3616259;39;20043;-65
2023/10/08 09:04:06;;;;;;;18.83;9.68;;;;;;;18.14;77.86;102312.75;3617623;39;20065;-66
2023/10/08 09:06:39;;;;;;;24.83;10.43;;;;;;;18.29;76.97;102328.00;3614864;39;20071;-65
2023/10/08 09:09:21;;;;;;;20.98;10.07;;;;;;;18.25;76.61;102304.69;3616359;39;20082;-65
2023/10/08 09:11:51;;;;;;;21.65;10.75;;;;;;;18.57;75.64;102334.22;3614379;39;20074;-65
2023/10/08 09:14:21;;;;;;;18.48;10.57;;;;;;;18.68;75.15;102334.31;3612565;39;20086;-66
2023/10/08 09:16:47;;;;;;;19.58;9.80;;;;;;;18.78;75.55;102340.88;3613253;39;20545;-67
2023/10/08 09:19:18;;;;;;;24.17;11.07;;;;;;;18.83;74.46;102337.81;3614192;39;20054;-65
2023/10/08 09:22:07;;;;;;;22.15;10.48;;;;;;;18.96;76.35;102337.78;3614336;39;20083;-65
2023/10/08 09:24:38;;;;;;;19.02;10.20;;;;;;;19.15;74.80;102313.63;3616629;39;20406;-66
2023/10/08 09:27:06;;;;;;;19.35;10.50;;;;;;;19.45;73.83;102329.56;3615557;39;20051;-66
2023/10/08 09:29:36;;;;;;;20.95;10.90;;;;;;;19.34;73.44;102299.47;3613970;39;20050;-64
2023/10/08 09:32:05;;;;;;;23.65;11.30;;;;;;;19.69;73.08;102318.69;3615760;39;20108;-65
2023/10/08 09:34:32;;;;;;;24.73;12.00;;;;;;;19.89;71.91;102333.50;3614582;39;20043;-65
2023/10/08 09:37:00;;;;;;;20.35;10.88;;;;;;;20.07;72.16;102336.63;3616559;39;20050;-64
2023/10/08 09:39:30;;;;;;;21.40;10.95;;;;;;;20.22;70.63;102339.16;3616756;39;20046;-65
2023/10/08 09:41:57;;;;;;;25.27;10.88;;;;;;;20.23;70.37;102341.78;3616678;39;20339;-65
2023/10/08 09:44:25;;;;;;;24.30;10.63;;;;;;;20.21;69.92;102341.03;3616322;39;20108;-65
2023/10/08 09:47:06;;;;;;;24.65;11.70;;;;;;;20.17;70.92;102343.16;3616229;39;20321;-65
2023/10/08 09:50:01;;;;;;;21.05;11.32;;;;;;;20.23;70.51;102332.72;3609498;39;20046;-64
2023/10/08 09:52:44;;;;;;;26.00;11.52;;;;;;;20.31;71.03;102331.13;3617907;39;20225;-66
2023/10/08 09:55:10;;;;;;;21.30;11.88;;;;;;;20.43;70.74;102325.69;3615680;39;20063;-65
2023/10/08 09:57:37;;;;;;;22.35;11.73;;;;;;;20.32;70.32;102299.22;3614192;39;20051;-65
2023/10/08 10:00:18;;;;;;;21.02;11.27;;;;;;;20.56;69.53;102327.34;3615605;39;20059;-65
2023/10/08 10:02:46;;;;;;;23.38;11.18;;;;;;;20.61;69.57;102322.38;3615371;39;20098;-65
2023/10/08 10:05:12;;;;;;;21.10;11.68;;;;;;;20.62;69.63;102283.13;3616193;39;20320;-65
2023/10/08 10:07:43;;;;;;;20.75;11.43;;;;;;;21.21;69.57;102306.50;3614209;39;20061;-65
2023/10/08 10:10:34;;;;;;;23.45;12.00;;;;;;;21.56;68.06;102300.84;3610458;39;20054;-65
2023/10/08 10:13:03;;;;;;;22.67;10.88;;;;;;;21.84;65.70;102290.25;3604380;39;20055;-65
2023/10/08 10:15:32;;;;;;;22.25;11.43;;;;;;;22.23;65.29;102316.09;3615178;39;20304;-64
2023/10/08 10:18:28;;;;;;;22.90;11.60;;;;;;;22.34;62.24;102309.66;3615821;39;20470;-65
2023/10/08 10:21:00;;;;;;;19.83;11.65;;;;;;;22.30;62.44;102316.41;3614407;39;20062;-64
2023/10/08 10:23:56;;;;;;;22.48;10.77;;;;;;;22.17;62.74;102323.94;3616810;39;20298;-65
2023/10/08 10:26:33;;;;;;;20.73;11.48;;;;;;;21.97;63.48;102314.72;3610194;39;20054;-65
2023/10/08 10:29:10;;;;;;;22.67;12.13;;;;;;;22.00;64.70;102336.34;3614026;39;20321;-65
2023/10/08 10:31:46;;;;;;;21.15;12.20;;;;;;;21.89;65.41;102320.84;3614231;39;20071;-64
2023/10/08 10:34:16;;;;;;;20.90;13.07;;;;;;;21.83;65.62;102313.19;3616482;39;20055;-64
2023/10/08 10:36:48;;;;;;;21.27;12.95;;;;;;;21.75;64.32;102304.75;3615048;39;20055;-65
2023/10/08 10:39:16;;;;;;;22.08;13.05;;;;;;;21.77;65.00;102308.22;3616606;39;20186;-65
2023/10/08 10:41:46;;;;;;;18.83;12.98;;;;;;;21.73;66.26;102310.34;3615128;39;20090;-65
2023/10/08 10:44:13;;;;;;;18.60;13.18;;;;;;;21.65;66.07;102310.13;3614293;39;20063;-65
2023/10/08 10:46:50;;;;;;;18.20;13.32;;;;;;;21.64;66.16;102315.75;3615733;39;20095;-64
2023/10/08 10:49:36;;;;;;;19.20;13.10;;;;;;;21.26;66.44;102278.78;3614434;39;20079;-64
2023/10/08 10:52:05;;;;;;;25.48;13.95;;;;;;;21.48;67.06;102330.72;3614313;39;20063;-65
2023/10/08 10:54:36;;;;;;;23.08;13.88;;;;;;;21.43;66.34;102327.50;3615290;39;20050;-65
2023/10/08 10:57:08;;;;;;;21.63;12.88;;;;;;;21.29;66.93;102325.91;3616722;39;20405;-65
2023/10/08 10:59:39;;;;;;;19.77;13.40;;;;;;;21.14;68.39;102318.09;3615028;39;20051;-64
2023/10/08 11:02:08;;;;;;;23.60;13.82;;;;;;;21.04;69.40;102318.00;3616280;39;20090;-64
2023/10/08 11:04:47;;;;;;;23.55;13.55;;;;;;;21.12;69.59;102323.69;3615251;39;20049;-64
2023/10/08 11:07:17;;;;;;;24.35;14.27;;;;;;;21.03;70.10;102314.41;3613957;39;20059;-65
2023/10/08 11:09:44;;;;;;;26.10;14.07;;;;;;;21.00;70.53;102320.13;3614455;39;20047;-64
2023/10/08 11:12:14;;;;;;;30.90;13.23;;;;;;;20.94;70.26;102319.75;3615253;39;20080;-64
2023/10/08 11:14:41;;;;;;;28.58;13.30;;;;;;;20.97;70.81;102320.38;3614128;39;20416;-65
2023/10/08 11:17:16;;;;;;;21.58;13.38;;;;;;;20.96;69.82;102323.22;3614182;39;20818;-64
2023/10/08 11:19:46;;;;;;;29.17;16.35;;;;;;;20.66;70.68;102289.22;3613511;39;20054;-65
2023/10/08 11:22:16;;;;;;;24.50;12.52;;;;;;;20.76;70.88;102333.06;3607646;39;20064;-66
2023/10/08 11:24:47;;;;;;;30.40;13.27;;;;;;;20.59;71.82;102326.22;3613388;39;20270;-66
2023/10/08 11:27:17;;;;;;;24.17;13.77;;;;;;;20.37;71.84;102322.44;3616075;39;20043;-65
2023/10/08 11:29:56;;;;;;;31.58;13.85;;;;;;;20.31;72.83;102327.53;3613409;39;20309;-65
2023/10/08 11:32:25;;;;;;;26.33;13.48;;;;;;;20.27;74.01;102320.56;3616216;39;20035;-65
2023/10/08 11:34:59;;;;;;;23.73;13.05;;;;;;;20.24;73.24;102321.69;3613384;39;20430;-66
2023/10/08 11:37:33;;;;;;;23.75;13.60;;;;;;;20.08;73.76;102311.09;3616080;39;20051;-65
2023/10/08 11:40:06;;;;;;;23.30;12.98;;;;;;;20.10;73.87;102319.16;3613727;39;20058;-65
2023/10/08 11:45:17;;;;;;;23.70;12.25;;;;;;;20.09;74.76;102318.28;3614383;39;20046;-66
2023/10/08 11:47:45;;;;;;;24.50;12.95;;;;;;;20.08;74.65;102308.38;3614192;39;20393;-66
2023/10/08 11:50:16;;;;;;;20.30;13.18;;;;;;;20.11;74.30;102313.59;3613798;39;20110;-65
2023/10/08 11:52:42;;;;;;;22.73;13.18;;;;;;;20.14;73.24;102316.09;3614862;39;20047;-65
2023/10/08 11:55:10;;;;;;;21.30;12.48;;;;;;;20.07;73.63;102308.47;3615222;39;20297;-65
2023/10/08 11:57:36;;;;;;;19.30;12.45;;;;;;;20.17;74.52;102304.03;3614175;39;20058;-65
2023/10/08 12:00:18;;;;;;;25.90;14.88;;;;;;;20.32;74.09;102296.47;3615424;39;20050;-65
2023/10/08 12:02:48;;;;;;;19.58;11.50;;;;;;;20.35;73.07;102271.66;3615406;39;20054;-66
2023/10/08 12:05:19;;;;;;;23.90;12.20;;;;;;;20.47;71.86;102273.41;3615637;39;20055;-66
2023/10/08 12:07:57;;;;;;;19.38;12.43;;;;;;;20.67;72.22;102299.13;3614822;39;20051;-65
2023/10/08 12:10:23;;;;;;;19.55;11.52;;;;;;;20.78;71.27;102287.34;3613714;39;20062;-65
2023/10/08 12:12:59;;;;;;;22.10;12.23;;;;;;;20.82;70.63;102283.34;3614244;39;20119;-66
2023/10/08 12:15:38;;;;;;;21.52;12.90;;;;;;;20.78;70.41;102273.69;3614537;39;20104;-65
2023/10/08 12:18:08;;;;;;;21.35;12.50;;;;;;;20.79;71.04;102289.06;3615404;39;20166;-65